sensor_id;sensor_type;location;lat;lon;timestamp;P1;durP1;ratioP1;P2;durP2;ratioP2
23690;SDS011;43867;50.836;4.364;2022-09-03T00:02:44;1.92;;;1.67;;
23690;SDS011;43867;50.836;4.364;2022-09-03T00:05:22;2.08;;;1.83;;
23690;SDS011;43867;50.836;4.364;2022-09-03T00:08:13;3.10;;;2.00;;
23690;SDS011;43867;50.836;4.364;2022-09-03T00:13:29;2.42;;;1.85;;
23690;SDS011;43867;50.836;4.364;2022-09-03T00:16:02;5.05;;;2.03;;
23690;SDS011;43867;50.836;4.364;2022-09-03T00:18:34;1.83;;;1.50;;
23690;SDS011;43867;50.836;4.364;2022-09-03T00:21:07;1.73;;;1.58;;
23690;SDS011;43867;50.836;4.364;2022-09-03T00:23:40;1.75;;;1.42;;
23690;SDS011;43867;50.836;4.364;2022-09-03T00:31:17;2.63;;;2.00;;
23690;SDS011;43867;50.836;4.364;2022-09-03T00:33:51;2.55;;;1.80;;
23690;SDS011;43867;50.836;4.364;2022-09-03T00:36:25;2.15;;;1.50;;
23690;SDS011;43867;50.836;4.364;2022-09-03T00:38:56;1.40;;;1.30;;
23690;SDS011;43867;50.836;4.364;2022-09-03T00:41:46;2.03;;;1.80;;
23690;SDS011;43867;50.836;4.364;2022-09-03T00:47:01;2.58;;;1.80;;
23690;SDS011;43867;50.836;4.364;2022-09-03T00:52:40;1.60;;;1.35;;
23690;SDS011;43867;50.836;4.364;2022-09-03T01:01:15;1.40;;;1.30;;
23690;SDS011;43867;50.836;4.364;2022-09-03T01:06:47;2.35;;;1.85;;
23690;SDS011;43867;50.836;4.364;2022-09-03T01:18:00;1.50;;;1.30;;
23690;SDS011;43867;50.836;4.364;2022-09-03T01:21:07;1.60;;;1.50;;
23690;SDS011;43867;50.836;4.364;2022-09-03T01:48:42;3.53;;;1.80;;
23690;SDS011;43867;50.836;4.364;2022-09-03T01:51:20;2.20;;;1.70;;
23690;SDS011;43867;50.836;4.364;2022-09-03T02:00:01;2.55;;;1.60;;
23690;SDS011;43867;50.836;4.364;2022-09-03T02:02:28;1.90;;;1.70;;
23690;SDS011;43867;50.836;4.364;2022-09-03T02:05:05;2.88;;;1.90;;
23690;SDS011;43867;50.836;4.364;2022-09-03T02:07:35;4.07;;;1.85;;
23690;SDS011;43867;50.836;4.364;2022-09-03T02:10:04;2.25;;;1.70;;
23690;SDS011;43867;50.836;4.364;2022-09-03T02:12:36;2.53;;;1.80;;
23690;SDS011;43867;50.836;4.364;2022-09-03T02:15:05;2.85;;;1.98;;
23690;SDS011;43867;50.836;4.364;2022-09-03T02:17:35;2.03;;;1.75;;
23690;SDS011;43867;50.836;4.364;2022-09-03T02:20:05;2.58;;;1.90;;
23690;SDS011;43867;50.836;4.364;2022-09-03T02:22:35;2.75;;;1.95;;
23690;SDS011;43867;50.836;4.364;2022-09-03T02:25:03;3.47;;;2.20;;
23690;SDS011;43867;50.836;4.364;2022-09-03T02:27:29;3.40;;;2.00;;
23690;SDS011;43867;50.836;4.364;2022-09-03T02:29:56;2.78;;;2.13;;
23690;SDS011;43867;50.836;4.364;2022-09-03T02:32:22;3.05;;;2.38;;
23690;SDS011;43867;50.836;4.364;2022-09-03T02:34:48;4.13;;;3.00;;
23690;SDS011;43867;50.836;4.364;2022-09-03T02:37:14;3.83;;;2.95;;
23690;SDS011;43867;50.836;4.364;2022-09-03T02:39:42;3.10;;;2.38;;
23690;SDS011;43867;50.836;4.364;2022-09-03T02:42:09;3.75;;;2.58;;
23690;SDS011;43867;50.836;4.364;2022-09-03T02:44:38;5.43;;;3.22;;
23690;SDS011;43867;50.836;4.364;2022-09-03T02:47:27;4.45;;;2.80;;
23690;SDS011;43867;50.836;4.364;2022-09-03T02:49:57;2.78;;;2.40;;
23690;SDS011;43867;50.836;4.364;2022-09-03T02:52:22;4.97;;;2.92;;
23690;SDS011;43867;50.836;4.364;2022-09-03T02:54:48;5.60;;;3.13;;
23690;SDS011;43867;50.836;4.364;2022-09-03T02:57:14;4.35;;;2.95;;
23690;SDS011;43867;50.836;4.364;2022-09-03T02:59:41;2.97;;;2.50;;
23690;SDS011;43867;50.836;4.364;2022-09-03T03:02:09;3.83;;;2.80;;
23690;SDS011;43867;50.836;4.364;2022-09-03T03:04:36;3.92;;;2.80;;
23690;SDS011;43867;50.836;4.364;2022-09-03T03:07:02;4.00;;;3.08;;
23690;SDS011;43867;50.836;4.364;2022-09-03T03:09:28;3.17;;;2.60;;
23690;SDS011;43867;50.836;4.364;2022-09-03T03:11:54;3.83;;;2.15;;
23690;SDS011;43867;50.836;4.364;2022-09-03T03:14:19;4.25;;;2.78;;
23690;SDS011;43867;50.836;4.364;2022-09-03T03:16:46;2.35;;;2.13;;
23690;SDS011;43867;50.836;4.364;2022-09-03T03:19:13;3.67;;;2.38;;
23690;SDS011;43867;50.836;4.364;2022-09-03T03:21:38;3.03;;;2.33;;
23690;SDS011;43867;50.836;4.364;2022-09-03T03:24:04;3.15;;;2.45;;
23690;SDS011;43867;50.836;4.364;2022-09-03T03:26:31;3.08;;;2.22;;
23690;SDS011;43867;50.836;4.364;2022-09-03T03:28:57;3.70;;;2.33;;
23690;SDS011;43867;50.836;4.364;2022-09-03T03:31:25;3.58;;;2.83;;
23690;SDS011;43867;50.836;4.364;2022-09-03T03:33:54;5.47;;;2.40;;
23690;SDS011;43867;50.836;4.364;2022-09-03T03:36:22;3.00;;;2.30;;
23690;SDS011;43867;50.836;4.364;2022-09-03T03:38:51;5.28;;;2.47;;
23690;SDS011;43867;50.836;4.364;2022-09-03T03:41:19;3.60;;;2.10;;
23690;SDS011;43867;50.836;4.364;2022-09-03T03:43:46;2.67;;;1.85;;
23690;SDS011;43867;50.836;4.364;2022-09-03T03:46:12;3.60;;;2.10;;
23690;SDS011;43867;50.836;4.364;2022-09-03T03:48:41;3.00;;;1.67;;
23690;SDS011;43867;50.836;4.364;2022-09-03T03:51:08;2.40;;;1.77;;
23690;SDS011;43867;50.836;4.364;2022-09-03T03:53:34;1.38;;;1.27;;
23690;SDS011;43867;50.836;4.364;2022-09-03T03:56:03;2.42;;;1.90;;
23690;SDS011;43867;50.836;4.364;2022-09-03T03:58:31;2.28;;;1.88;;
23690;SDS011;43867;50.836;4.364;2022-09-03T04:01:07;1.88;;;1.50;;
23690;SDS011;43867;50.836;4.364;2022-09-03T04:03:36;2.40;;;1.67;;
23690;SDS011;43867;50.836;4.364;2022-09-03T04:06:02;2.30;;;1.70;;
23690;SDS011;43867;50.836;4.364;2022-09-03T04:08:29;2.00;;;1.70;;
23690;SDS011;43867;50.836;4.364;2022-09-03T04:10:58;2.00;;;1.80;;
23690;SDS011;43867;50.836;4.364;2022-09-03T04:13:29;2.60;;;2.20;;
23690;SDS011;43867;50.836;4.364;2022-09-03T04:18:37;1.80;;;1.60;;
23690;SDS011;43867;50.836;4.364;2022-09-03T04:21:07;2.42;;;1.70;;
23690;SDS011;43867;50.836;4.364;2022-09-03T04:23:39;2.28;;;1.60;;
23690;SDS011;43867;50.836;4.364;2022-09-03T04:26:06;2.10;;;1.65;;
23690;SDS011;43867;50.836;4.364;2022-09-03T04:28:33;2.58;;;1.80;;
23690;SDS011;43867;50.836;4.364;2022-09-03T04:31:00;2.03;;;1.35;;
23690;SDS011;43867;50.836;4.364;2022-09-03T04:33:27;1.75;;;1.60;;
23690;SDS011;43867;50.836;4.364;2022-09-03T04:35:59;2.13;;;1.80;;
23690;SDS011;43867;50.836;4.364;2022-09-03T04:38:28;2.33;;;1.80;;
23690;SDS011;43867;50.836;4.364;2022-09-03T04:40:53;3.80;;;1.83;;
23690;SDS011;43867;50.836;4.364;2022-09-03T04:43:20;2.22;;;1.80;;
23690;SDS011;43867;50.836;4.364;2022-09-03T04:45:45;3.38;;;2.22;;
23690;SDS011;43867;50.836;4.364;2022-09-03T04:48:11;2.33;;;2.00;;
23690;SDS011;43867;50.836;4.364;2022-09-03T04:50:37;1.83;;;1.60;;
23690;SDS011;43867;50.836;4.364;2022-09-03T04:53:03;3.05;;;1.90;;
23690;SDS011;43867;50.836;4.364;2022-09-03T04:55:36;2.67;;;1.92;;
23690;SDS011;43867;50.836;4.364;2022-09-03T04:58:02;2.55;;;1.83;;
23690;SDS011;43867;50.836;4.364;2022-09-03T05:00:28;2.75;;;1.98;;
23690;SDS011;43867;50.836;4.364;2022-09-03T05:02:54;2.60;;;2.10;;
23690;SDS011;43867;50.836;4.364;2022-09-03T05:05:20;3.40;;;2.45;;
23690;SDS011;43867;50.836;4.364;2022-09-03T05:07:46;2.70;;;2.13;;
23690;SDS011;43867;50.836;4.364;2022-09-03T05:10:12;4.07;;;2.17;;
23690;SDS011;43867;50.836;4.364;2022-09-03T05:12:44;3.28;;;2.05;;
23690;SDS011;43867;50.836;4.364;2022-09-03T05:15:11;2.83;;;1.88;;
23690;SDS011;43867;50.836;4.364;2022-09-03T05:17:38;2.38;;;1.73;;
23690;SDS011;43867;50.836;4.364;2022-09-03T05:20:03;2.50;;;1.90;;
23690;SDS011;43867;50.836;4.364;2022-09-03T05:22:32;1.80;;;1.27;;
23690;SDS011;43867;50.836;4.364;2022-09-03T05:24:58;1.83;;;1.73;;
23690;SDS011;43867;50.836;4.364;2022-09-03T05:27:24;1.55;;;1.45;;
23690;SDS011;43867;50.836;4.364;2022-09-03T05:29:50;2.20;;;1.83;;
23690;SDS011;43867;50.836;4.364;2022-09-03T05:32:15;2.88;;;1.85;;
23690;SDS011;43867;50.836;4.364;2022-09-03T05:34:42;2.88;;;1.77;;
23690;SDS011;43867;50.836;4.364;2022-09-03T05:37:08;2.20;;;1.90;;
23690;SDS011;43867;50.836;4.364;2022-09-03T05:39:36;2.22;;;1.85;;
23690;SDS011;43867;50.836;4.364;2022-09-03T05:42:02;1.70;;;1.60;;
23690;SDS011;43867;50.836;4.364;2022-09-03T05:44:28;2.30;;;1.70;;
23690;SDS011;43867;50.836;4.364;2022-09-03T05:46:54;3.55;;;1.92;;
23690;SDS011;43867;50.836;4.364;2022-09-03T05:49:19;2.30;;;1.77;;
23690;SDS011;43867;50.836;4.364;2022-09-03T05:51:45;2.35;;;1.85;;
23690;SDS011;43867;50.836;4.364;2022-09-03T05:54:11;3.25;;;2.13;;
23690;SDS011;43867;50.836;4.364;2022-09-03T05:56:37;3.40;;;2.78;;
23690;SDS011;43867;50.836;4.364;2022-09-03T05:59:06;2.47;;;2.08;;
23690;SDS011;43867;50.836;4.364;2022-09-03T06:01:34;2.10;;;1.90;;
23690;SDS011;43867;50.836;4.364;2022-09-03T06:04:02;2.75;;;1.80;;
23690;SDS011;43867;50.836;4.364;2022-09-03T06:06:31;2.50;;;2.03;;
23690;SDS011;43867;50.836;4.364;2022-09-03T06:08:58;3.50;;;2.25;;
23690;SDS011;43867;50.836;4.364;2022-09-03T06:11:26;2.10;;;1.70;;
23690;SDS011;43867;50.836;4.364;2022-09-03T06:13:56;3.05;;;2.15;;
23690;SDS011;43867;50.836;4.364;2022-09-03T06:16:25;2.17;;;1.80;;
23690;SDS011;43867;50.836;4.364;2022-09-03T06:18:51;2.70;;;1.80;;
23690;SDS011;43867;50.836;4.364;2022-09-03T06:21:18;2.10;;;1.80;;
23690;SDS011;43867;50.836;4.364;2022-09-03T06:23:48;1.90;;;1.70;;
23690;SDS011;43867;50.836;4.364;2022-09-03T06:26:15;2.10;;;1.60;;
23690;SDS011;43867;50.836;4.364;2022-09-03T06:28:42;2.10;;;1.88;;
23690;SDS011;43867;50.836;4.364;2022-09-03T06:31:09;2.63;;;1.90;;
23690;SDS011;43867;50.836;4.364;2022-09-03T06:33:39;3.03;;;1.90;;
23690;SDS011;43867;50.836;4.364;2022-09-03T06:36:07;2.20;;;1.80;;
23690;SDS011;43867;50.836;4.364;2022-09-03T06:38:35;3.05;;;2.35;;
23690;SDS011;43867;50.836;4.364;2022-09-03T06:41:04;2.30;;;1.52;;
23690;SDS011;43867;50.836;4.364;2022-09-03T06:46:08;2.35;;;1.83;;
23690;SDS011;43867;50.836;4.364;2022-09-03T06:48:36;3.03;;;1.85;;
23690;SDS011;43867;50.836;4.364;2022-09-03T06:51:04;2.08;;;1.48;;
23690;SDS011;43867;50.836;4.364;2022-09-03T06:53:35;2.42;;;1.60;;
23690;SDS011;43867;50.836;4.364;2022-09-03T06:56:03;1.75;;;1.60;;
23690;SDS011;43867;50.836;4.364;2022-09-03T06:58:37;2.17;;;1.85;;
23690;SDS011;43867;50.836;4.364;2022-09-03T07:01:08;2.20;;;1.70;;
23690;SDS011;43867;50.836;4.364;2022-09-03T07:03:36;1.60;;;1.50;;
23690;SDS011;43867;50.836;4.364;2022-09-03T07:06:04;2.13;;;1.55;;
23690;SDS011;43867;50.836;4.364;2022-09-03T07:08:31;2.65;;;1.50;;
23690;SDS011;43867;50.836;4.364;2022-09-03T07:10:58;3.88;;;1.58;;
23690;SDS011;43867;50.836;4.364;2022-09-03T07:13:25;1.67;;;1.50;;
23690;SDS011;43867;50.836;4.364;2022-09-03T07:16:00;1.88;;;1.48;;
23690;SDS011;43867;50.836;4.364;2022-09-03T07:18:29;2.08;;;1.70;;
23690;SDS011;43867;50.836;4.364;2022-09-03T07:21:05;2.88;;;1.50;;
23690;SDS011;43867;50.836;4.364;2022-09-03T07:23:33;1.77;;;1.40;;
23690;SDS011;43867;50.836;4.364;2022-09-03T07:26:02;1.92;;;1.60;;
23690;SDS011;43867;50.836;4.364;2022-09-03T07:28:29;2.30;;;1.77;;
23690;SDS011;43867;50.836;4.364;2022-09-03T07:31:00;2.13;;;1.75;;
23690;SDS011;43867;50.836;4.364;2022-09-03T07:33:28;1.88;;;1.77;;
23690;SDS011;43867;50.836;4.364;2022-09-03T07:35:55;1.73;;;1.50;;
23690;SDS011;43867;50.836;4.364;2022-09-03T07:38:21;2.50;;;1.73;;
23690;SDS011;43867;50.836;4.364;2022-09-03T07:40:48;1.90;;;1.45;;
23690;SDS011;43867;50.836;4.364;2022-09-03T07:43:21;4.03;;;1.75;;
23690;SDS011;43867;50.836;4.364;2022-09-03T07:45:50;1.70;;;1.60;;
23690;SDS011;43867;50.836;4.364;2022-09-03T07:48:15;2.63;;;2.00;;
23690;SDS011;43867;50.836;4.364;2022-09-03T07:50:42;1.90;;;1.70;;
23690;SDS011;43867;50.836;4.364;2022-09-03T07:53:07;1.80;;;1.67;;
23690;SDS011;43867;50.836;4.364;2022-09-03T07:55:33;2.53;;;1.63;;
23690;SDS011;43867;50.836;4.364;2022-09-03T07:57:59;2.83;;;1.88;;
23690;SDS011;43867;50.836;4.364;2022-09-03T08:00:24;2.22;;;1.60;;
23690;SDS011;43867;50.836;4.364;2022-09-03T08:02:50;2.70;;;1.90;;
23690;SDS011;43867;50.836;4.364;2022-09-03T08:05:17;1.70;;;1.60;;
23690;SDS011;43867;50.836;4.364;2022-09-03T08:07:45;2.50;;;1.90;;
23690;SDS011;43867;50.836;4.364;2022-09-03T08:10:12;2.42;;;1.77;;
23690;SDS011;43867;50.836;4.364;2022-09-03T08:12:38;2.40;;;1.90;;
23690;SDS011;43867;50.836;4.364;2022-09-03T08:15:04;2.10;;;1.90;;
23690;SDS011;43867;50.836;4.364;2022-09-03T08:17:30;1.92;;;1.60;;
23690;SDS011;43867;50.836;4.364;2022-09-03T08:19:56;4.97;;;1.90;;
23690;SDS011;43867;50.836;4.364;2022-09-03T08:22:22;2.17;;;1.80;;
23690;SDS011;43867;50.836;4.364;2022-09-03T08:24:49;2.00;;;1.70;;
23690;SDS011;43867;50.836;4.364;2022-09-03T08:27:18;3.10;;;2.15;;
23690;SDS011;43867;50.836;4.364;2022-09-03T08:29:48;2.72;;;2.13;;
23690;SDS011;43867;50.836;4.364;2022-09-03T08:32:13;2.92;;;1.95;;
23690;SDS011;43867;50.836;4.364;2022-09-03T08:34:39;2.00;;;1.80;;
23690;SDS011;43867;50.836;4.364;2022-09-03T08:37:05;2.50;;;2.17;;
23690;SDS011;43867;50.836;4.364;2022-09-03T08:39:35;3.22;;;2.20;;
23690;SDS011;43867;50.836;4.364;2022-09-03T08:44:58;2.00;;;1.73;;
23690;SDS011;43867;50.836;4.364;2022-09-03T08:47:36;2.43;;;1.97;;
23690;SDS011;43867;50.836;4.364;2022-09-03T08:55:27;2.28;;;1.92;;
23690;SDS011;43867;50.836;4.364;2022-09-03T09:03:41;2.83;;;1.85;;
23690;SDS011;43867;50.836;4.364;2022-09-03T09:22:34;2.08;;;1.80;;
23690;SDS011;43867;50.836;4.364;2022-09-03T09:25:05;3.00;;;2.33;;
23690;SDS011;43867;50.836;4.364;2022-09-03T09:27:53;3.92;;;2.17;;
23690;SDS011;43867;50.836;4.364;2022-09-03T09:30:23;3.28;;;2.30;;
23690;SDS011;43867;50.836;4.364;2022-09-03T09:32:49;2.33;;;2.00;;
23690;SDS011;43867;50.836;4.364;2022-09-03T09:35:15;2.30;;;1.85;;
23690;SDS011;43867;50.836;4.364;2022-09-03T09:40:22;2.50;;;2.00;;
23690;SDS011;43867;50.836;4.364;2022-09-03T09:43:04;2.20;;;1.90;;
23690;SDS011;43867;50.836;4.364;2022-09-03T09:45:40;2.85;;;2.05;;
23690;SDS011;43867;50.836;4.364;2022-09-03T09:48:30;2.72;;;1.85;;
23690;SDS011;43867;50.836;4.364;2022-09-03T09:51:09;3.20;;;2.30;;
23690;SDS011;43867;50.836;4.364;2022-09-03T09:53:37;2.55;;;2.05;;
23690;SDS011;43867;50.836;4.364;2022-09-03T09:56:06;2.60;;;1.95;;
23690;SDS011;43867;50.836;4.364;2022-09-03T09:58:33;2.75;;;1.95;;
23690;SDS011;43867;50.836;4.364;2022-09-03T10:03:32;2.30;;;2.10;;
23690;SDS011;43867;50.836;4.364;2022-09-03T10:06:03;2.35;;;2.13;;
23690;SDS011;43867;50.836;4.364;2022-09-03T10:08:53;3.17;;;2.13;;
23690;SDS011;43867;50.836;4.364;2022-09-03T10:11:36;2.65;;;2.35;;
23690;SDS011;43867;50.836;4.364;2022-09-03T10:17:02;5.10;;;3.00;;
23690;SDS011;43867;50.836;4.364;2022-09-03T10:22:40;5.25;;;2.85;;
23690;SDS011;43867;50.836;4.364;2022-09-03T10:25:10;3.05;;;2.40;;
23690;SDS011;43867;50.836;4.364;2022-09-03T10:27:40;3.92;;;2.40;;
23690;SDS011;43867;50.836;4.364;2022-09-03T10:30:10;3.33;;;2.13;;
23690;SDS011;43867;50.836;4.364;2022-09-03T10:35:30;3.17;;;2.35;;
23690;SDS011;43867;50.836;4.364;2022-09-03T10:38:09;4.13;;;2.60;;
23690;SDS011;43867;50.836;4.364;2022-09-03T10:46:01;3.58;;;2.30;;
23690;SDS011;43867;50.836;4.364;2022-09-03T11:07:00;2.85;;;2.50;;
23690;SDS011;43867;50.836;4.364;2022-09-03T11:14:55;3.03;;;2.15;;
23690;SDS011;43867;50.836;4.364;2022-09-03T11:17:45;2.38;;;2.10;;
23690;SDS011;43867;50.836;4.364;2022-09-03T11:22:45;2.50;;;1.88;;
23690;SDS011;43867;50.836;4.364;2022-09-03T11:25:14;3.75;;;2.10;;
23690;SDS011;43867;50.836;4.364;2022-09-03T11:27:52;2.08;;;1.70;;
23690;SDS011;43867;50.836;4.364;2022-09-03T11:30:51;3.67;;;2.40;;
23690;SDS011;43867;50.836;4.364;2022-09-03T11:33:46;3.10;;;1.90;;
23690;SDS011;43867;50.836;4.364;2022-09-03T11:36:33;2.60;;;1.83;;
23690;SDS011;43867;50.836;4.364;2022-09-03T11:41:59;3.10;;;2.33;;
23690;SDS011;43867;50.836;4.364;2022-09-03T11:44:37;2.25;;;1.90;;
23690;SDS011;43867;50.836;4.364;2022-09-03T11:49:51;2.67;;;1.90;;
23690;SDS011;43867;50.836;4.364;2022-09-03T11:52:27;3.08;;;1.95;;
23690;SDS011;43867;50.836;4.364;2022-09-03T11:54:56;2.47;;;1.95;;
23690;SDS011;43867;50.836;4.364;2022-09-03T11:57:26;2.75;;;1.83;;
23690;SDS011;43867;50.836;4.364;2022-09-03T11:59:54;4.35;;;2.63;;
23690;SDS011;43867;50.836;4.364;2022-09-03T12:02:36;2.25;;;1.90;;
23690;SDS011;43867;50.836;4.364;2022-09-03T12:07:54;4.10;;;2.38;;
23690;SDS011;43867;50.836;4.364;2022-09-03T12:18:54;3.03;;;2.10;;
23690;SDS011;43867;50.836;4.364;2022-09-03T12:21:36;2.95;;;2.15;;
23690;SDS011;43867;50.836;4.364;2022-09-03T12:24:04;2.88;;;2.30;;
23690;SDS011;43867;50.836;4.364;2022-09-03T12:26:29;4.47;;;2.08;;
23690;SDS011;43867;50.836;4.364;2022-09-03T12:29:04;4.20;;;2.53;;
23690;SDS011;43867;50.836;4.364;2022-09-03T12:31:31;3.63;;;2.35;;
23690;SDS011;43867;50.836;4.364;2022-09-03T12:34:11;4.10;;;3.38;;
23690;SDS011;43867;50.836;4.364;2022-09-03T12:36:47;4.18;;;2.78;;
23690;SDS011;43867;50.836;4.364;2022-09-03T12:47:01;3.65;;;2.13;;
23690;SDS011;43867;50.836;4.364;2022-09-03T12:49:41;2.50;;;2.08;;
23690;SDS011;43867;50.836;4.364;2022-09-03T12:54:56;3.40;;;2.20;;
23690;SDS011;43867;50.836;4.364;2022-09-03T12:57:39;2.42;;;1.75;;
23690;SDS011;43867;50.836;4.364;2022-09-03T13:00:12;1.90;;;1.70;;
23690;SDS011;43867;50.836;4.364;2022-09-03T13:05:26;1.90;;;1.70;;
23690;SDS011;43867;50.836;4.364;2022-09-03T13:08:00;2.13;;;1.90;;
23690;SDS011;43867;50.836;4.364;2022-09-03T13:10:33;3.75;;;2.28;;
23690;SDS011;43867;50.836;4.364;2022-09-03T13:13:06;2.50;;;1.75;;
23690;SDS011;43867;50.836;4.364;2022-09-03T13:21:32;2.40;;;2.15;;
23690;SDS011;43867;50.836;4.364;2022-09-03T13:24:48;2.35;;;1.50;;
23690;SDS011;43867;50.836;4.364;2022-09-03T13:27:34;3.15;;;1.80;;
23690;SDS011;43867;50.836;4.364;2022-09-03T13:30:08;2.15;;;1.48;;
23690;SDS011;43867;50.836;4.364;2022-09-03T13:32:44;1.67;;;1.25;;
23690;SDS011;43867;50.836;4.364;2022-09-03T13:43:18;2.03;;;1.15;;
23690;SDS011;43867;50.836;4.364;2022-09-03T13:48:58;1.75;;;1.10;;
23690;SDS011;43867;50.836;4.364;2022-09-03T13:51:54;1.30;;;1.10;;
23690;SDS011;43867;50.836;4.364;2022-09-03T13:54:29;1.60;;;1.20;;
23690;SDS011;43867;50.836;4.364;2022-09-03T13:57:09;1.35;;;1.13;;
23690;SDS011;43867;50.836;4.364;2022-09-03T14:00:02;1.92;;;1.10;;
23690;SDS011;43867;50.836;4.364;2022-09-03T14:02:49;1.48;;;1.30;;
23690;SDS011;43867;50.836;4.364;2022-09-03T14:21:35;1.33;;;0.98;;
23690;SDS011;43867;50.836;4.364;2022-09-03T14:26:56;1.02;;;0.95;;
23690;SDS011;43867;50.836;4.364;2022-09-03T14:29:27;1.40;;;1.30;;
23690;SDS011;43867;50.836;4.364;2022-09-03T14:34:33;1.80;;;1.17;;
23690;SDS011;43867;50.836;4.364;2022-09-03T14:40:11;1.90;;;1.52;;
23690;SDS011;43867;50.836;4.364;2022-09-03T14:45:38;2.53;;;2.08;;
23690;SDS011;43867;50.836;4.364;2022-09-03T14:53:52;4.35;;;2.75;;
23690;SDS011;43867;50.836;4.364;2022-09-03T15:02:06;2.42;;;2.22;;
23690;SDS011;43867;50.836;4.364;2022-09-03T15:18:01;6.53;;;4.47;;
23690;SDS011;43867;50.836;4.364;2022-09-03T15:20:49;3.90;;;2.80;;
23690;SDS011;43867;50.836;4.364;2022-09-03T15:26:26;3.50;;;2.53;;
23690;SDS011;43867;50.836;4.364;2022-09-03T15:36:44;4.43;;;3.13;;
23690;SDS011;43867;50.836;4.364;2022-09-03T15:39:27;2.80;;;1.97;;
23690;SDS011;43867;50.836;4.364;2022-09-03T15:41:59;2.95;;;2.30;;
23690;SDS011;43867;50.836;4.364;2022-09-03T15:44:41;2.25;;;2.05;;
23690;SDS011;43867;50.836;4.364;2022-09-03T15:47:31;2.83;;;2.00;;
23690;SDS011;43867;50.836;4.364;2022-09-03T15:50:34;3.13;;;2.10;;
23690;SDS011;43867;50.836;4.364;2022-09-03T15:53:18;2.25;;;1.77;;
23690;SDS011;43867;50.836;4.364;2022-09-03T15:56:01;2.78;;;1.90;;
23690;SDS011;43867;50.836;4.364;2022-09-03T15:58:33;2.45;;;1.77;;
23690;SDS011;43867;50.836;4.364;2022-09-03T16:01:03;4.38;;;2.13;;
23690;SDS011;43867;50.836;4.364;2022-09-03T16:15:34;4.87;;;2.47;;
23690;SDS011;43867;50.836;4.364;2022-09-03T16:20:52;2.75;;;2.08;;
23690;SDS011;43867;50.836;4.364;2022-09-03T16:26:29;3.42;;;2.35;;
23690;SDS011;43867;50.836;4.364;2022-09-03T16:29:05;2.10;;;1.73;;
23690;SDS011;43867;50.836;4.364;2022-09-03T16:31:45;3.42;;;2.30;;
23690;SDS011;43867;50.836;4.364;2022-09-03T16:34:49;3.25;;;2.65;;
23690;SDS011;43867;50.836;4.364;2022-09-03T16:37:34;2.75;;;2.05;;
23690;SDS011;43867;50.836;4.364;2022-09-03T16:40:32;3.35;;;2.15;;
23690;SDS011;43867;50.836;4.364;2022-09-03T16:43:20;2.30;;;1.88;;
23690;SDS011;43867;50.836;4.364;2022-09-03T16:46:17;3.22;;;2.10;;
23690;SDS011;43867;50.836;4.364;2022-09-03T16:49:11;1.58;;;1.48;;
23690;SDS011;43867;50.836;4.364;2022-09-03T17:00:18;3.17;;;2.45;;
23690;SDS011;43867;50.836;4.364;2022-09-03T17:05:37;2.60;;;1.67;;
23690;SDS011;43867;50.836;4.364;2022-09-03T17:08:38;2.72;;;2.20;;
23690;SDS011;43867;50.836;4.364;2022-09-03T17:14:03;2.28;;;2.08;;
23690;SDS011;43867;50.836;4.364;2022-09-03T17:19:38;2.85;;;1.80;;
23690;SDS011;43867;50.836;4.364;2022-09-03T17:22:32;2.92;;;2.13;;
23690;SDS011;43867;50.836;4.364;2022-09-03T17:25:52;3.67;;;1.98;;
23690;SDS011;43867;50.836;4.364;2022-09-03T17:28:19;2.75;;;1.88;;
23690;SDS011;43867;50.836;4.364;2022-09-03T17:36:25;2.80;;;2.50;;
23690;SDS011;43867;50.836;4.364;2022-09-03T17:49:52;3.00;;;2.08;;
23690;SDS011;43867;50.836;4.364;2022-09-03T17:52:31;3.08;;;2.30;;
23690;SDS011;43867;50.836;4.364;2022-09-03T17:58:10;3.50;;;2.78;;
23690;SDS011;43867;50.836;4.364;2022-09-03T18:04:12;3.55;;;2.88;;
23690;SDS011;43867;50.836;4.364;2022-09-03T18:11:46;4.38;;;2.63;;
23690;SDS011;43867;50.836;4.364;2022-09-03T18:20:10;3.83;;;2.33;;
23690;SDS011;43867;50.836;4.364;2022-09-03T18:23:06;4.10;;;2.40;;
23690;SDS011;43867;50.836;4.364;2022-09-03T18:26:04;2.78;;;2.17;;
23690;SDS011;43867;50.836;4.364;2022-09-03T18:29:00;2.40;;;2.20;;
23690;SDS011;43867;50.836;4.364;2022-09-03T18:31:47;2.55;;;1.92;;
23690;SDS011;43867;50.836;4.364;2022-09-03T18:34:33;2.22;;;1.50;;
23690;SDS011;43867;50.836;4.364;2022-09-03T18:37:24;3.03;;;1.95;;
23690;SDS011;43867;50.836;4.364;2022-09-03T18:40:11;2.78;;;1.73;;
23690;SDS011;43867;50.836;4.364;2022-09-03T18:46:06;4.00;;;1.70;;
23690;SDS011;43867;50.836;4.364;2022-09-03T18:49:10;2.55;;;1.65;;
23690;SDS011;43867;50.836;4.364;2022-09-03T18:54:53;2.05;;;1.30;;
23690;SDS011;43867;50.836;4.364;2022-09-03T18:57:54;1.95;;;1.40;;
23690;SDS011;43867;50.836;4.364;2022-09-03T19:00:50;1.60;;;1.33;;
23690;SDS011;43867;50.836;4.364;2022-09-03T19:09:47;2.00;;;1.45;;
23690;SDS011;43867;50.836;4.364;2022-09-03T19:16:11;1.80;;;1.05;;
23690;SDS011;43867;50.836;4.364;2022-09-03T19:22:34;2.10;;;1.67;;
23690;SDS011;43867;50.836;4.364;2022-09-03T19:25:20;2.22;;;1.80;;
23690;SDS011;43867;50.836;4.364;2022-09-03T19:31:01;2.10;;;1.60;;
23690;SDS011;43867;50.836;4.364;2022-09-03T19:52:33;2.38;;;1.75;;
23690;SDS011;43867;50.836;4.364;2022-09-03T19:55:40;2.40;;;1.92;;
23690;SDS011;43867;50.836;4.364;2022-09-03T19:58:29;2.47;;;2.00;;
23690;SDS011;43867;50.836;4.364;2022-09-03T20:01:16;2.95;;;2.00;;
23690;SDS011;43867;50.836;4.364;2022-09-03T20:04:05;4.10;;;2.20;;
23690;SDS011;43867;50.836;4.364;2022-09-03T20:06:58;3.63;;;1.73;;
23690;SDS011;43867;50.836;4.364;2022-09-03T20:09:45;2.33;;;1.90;;
23690;SDS011;43867;50.836;4.364;2022-09-03T20:12:38;3.03;;;2.00;;
23690;SDS011;43867;50.836;4.364;2022-09-03T20:15:07;2.10;;;1.77;;
23690;SDS011;43867;50.836;4.364;2022-09-03T20:26:13;3.17;;;2.15;;
23690;SDS011;43867;50.836;4.364;2022-09-03T20:31:29;4.45;;;2.75;;
23690;SDS011;43867;50.836;4.364;2022-09-03T20:34:52;1.90;;;1.60;;
23690;SDS011;43867;50.836;4.364;2022-09-03T20:42:27;3.00;;;2.22;;
23690;SDS011;43867;50.836;4.364;2022-09-03T20:50:43;2.60;;;2.13;;
23690;SDS011;43867;50.836;4.364;2022-09-03T20:53:40;3.45;;;2.15;;
23690;SDS011;43867;50.836;4.364;2022-09-03T20:59:24;2.80;;;1.97;;
23690;SDS011;43867;50.836;4.364;2022-09-03T21:02:04;2.80;;;1.95;;
23690;SDS011;43867;50.836;4.364;2022-09-03T21:10:02;3.92;;;2.33;;
23690;SDS011;43867;50.836;4.364;2022-09-03T21:12:54;3.13;;;1.98;;
23690;SDS011;43867;50.836;4.364;2022-09-03T21:28:39;2.60;;;2.03;;
23690;SDS011;43867;50.836;4.364;2022-09-03T21:31:40;2.50;;;1.80;;
23690;SDS011;43867;50.836;4.364;2022-09-03T21:34:11;1.98;;;1.52;;
23690;SDS011;43867;50.836;4.364;2022-09-03T21:36:43;2.80;;;1.92;;
23690;SDS011;43867;50.836;4.364;2022-09-03T21:39:26;4.72;;;2.00;;
23690;SDS011;43867;50.836;4.364;2022-09-03T21:44:57;2.15;;;1.77;;
23690;SDS011;43867;50.836;4.364;2022-09-03T21:47:59;2.35;;;1.98;;
23690;SDS011;43867;50.836;4.364;2022-09-03T21:50:46;2.50;;;1.90;;
23690;SDS011;43867;50.836;4.364;2022-09-03T21:53:24;2.97;;;1.58;;
23690;SDS011;43867;50.836;4.364;2022-09-03T22:04:12;3.03;;;2.00;;
23690;SDS011;43867;50.836;4.364;2022-09-03T22:06:42;2.75;;;1.85;;
23690;SDS011;43867;50.836;4.364;2022-09-03T22:09:47;1.85;;;1.40;;
23690;SDS011;43867;50.836;4.364;2022-09-03T22:12:10;2.22;;;1.40;;
23690;SDS011;43867;50.836;4.364;2022-09-03T22:14:43;2.28;;;1.73;;
23690;SDS011;43867;50.836;4.364;2022-09-03T22:20:13;2.65;;;1.50;;
23690;SDS011;43867;50.836;4.364;2022-09-03T22:25:14;2.50;;;1.65;;
23690;SDS011;43867;50.836;4.364;2022-09-03T22:27:47;3.13;;;1.73;;
23690;SDS011;43867;50.836;4.364;2022-09-03T22:30:25;1.40;;;1.30;;
23690;SDS011;43867;50.836;4.364;2022-09-03T22:51:35;2.80;;;1.98;;
23690;SDS011;43867;50.836;4.364;2022-09-03T22:54:25;2.20;;;1.55;;